Time;durP1;ratioP1;P1;durP2;ratioP2;P2;SDS_P1;SDS_P2;PMS_P1;PMS_P2;Temp;Humidity;BMP_temperature;BMP_pressure;BME280_temperature;BME280_humidity;BME280_pressure;Samples;Min_cycle;Max_cycle;Signal;HPM_P1;HPM_P2
2021/07/26 00:02:12;;;;;;;5.80;3.78;;;;;;;17.30;91.74;98513.34;5099634;28;20051;-84
2021/07/26 00:04:39;;;;;;;8.40;3.63;;;;;;;17.22;91.98;98507.41;5102566;28;20051;-84
2021/07/26 00:07:06;;;;;;;4.03;3.30;;;;;;;17.32;91.49;98516.69;5105104;28;20043;-84
2021/07/26 00:09:34;;;;;;;4.63;3.03;;;;;;;17.22;91.72;98505.47;5102180;28;20058;-84
2021/07/26 00:12:03;;;;;;;8.15;3.53;;;;;;;17.24;91.68;98521.75;5109430;28;20136;-84
2021/07/26 00:14:30;;;;;;;4.25;3.17;;;;;;;17.23;91.74;98512.66;5104614;28;20069;-83
2021/07/26 00:16:57;;;;;;;4.85;3.38;;;;;;;17.11;91.80;98509.94;5102735;28;20056;-82
2021/07/26 00:19:24;;;;;;;6.80;3.58;;;;;;;17.21;91.95;98520.31;5094521;28;20094;-83
2021/07/26 00:21:51;;;;;;;6.47;3.20;;;;;;;17.16;92.02;98510.06;5101556;28;20060;-82
2021/07/26 00:24:17;;;;;;;7.85;4.65;;;;;;;17.15;92.06;98507.56;5102491;28;20141;-82
2021/07/26 00:26:44;;;;;;;5.20;3.40;;;;;;;17.15;92.05;98507.56;5097969;28;20047;-82
2021/07/26 00:29:12;;;;;;;4.00;3.00;;;;;;;17.16;91.24;98506.47;5110622;28;20047;-81
2021/07/26 00:31:39;;;;;;;7.72;3.22;;;;;;;17.10;92.27;98511.03;5107279;28;20089;-82
2021/07/26 00:34:13;;;;;;;5.40;3.42;;;;;;;17.07;92.75;98508.78;5099602;28;20057;-82
2021/07/26 00:36:41;;;;;;;5.38;3.08;;;;;;;17.11;92.09;98525.59;5092749;28;20483;-82
2021/07/26 00:39:09;;;;;;;4.72;3.30;;;;;;;17.07;92.48;98514.28;5113395;28;20100;-82
2021/07/26 00:41:37;;;;;;;6.97;3.35;;;;;;;17.05;92.16;98499.13;5101162;28;20415;-83
2021/07/26 00:44:05;;;;;;;4.15;3.22;;;;;;;17.06;91.74;98515.34;5102374;28;20105;-83
2021/07/26 00:46:34;;;;;;;4.50;4.03;;;;;;;17.05;91.94;98521.91;5109511;28;20050;-83
2021/07/26 00:49:03;;;;;;;3.83;2.97;;;;;;;17.07;91.47;98518.91;5102895;28;20404;-83
2021/07/26 00:51:31;;;;;;;5.45;3.22;;;;;;;17.00;91.45;98508.09;5107803;28;20383;-82
2021/07/26 00:53:58;;;;;;;4.22;2.85;;;;;;;17.06;92.34;98528.25;5109802;28;20518;-82
2021/07/26 00:56:25;;;;;;;4.43;2.88;;;;;;;16.87;93.04;98506.44;5114940;28;20373;-82
2021/07/26 00:58:52;;;;;;;7.00;3.10;;;;;;;16.86;93.05;98503.91;5112286;28;20471;-82
2021/07/26 01:01:19;;;;;;;5.47;3.13;;;;;;;17.06;92.56;98520.84;5103074;28;20043;-82
2021/07/26 01:03:47;;;;;;;4.75;3.17;;;;;;;17.07;92.43;98518.91;5099154;28;20446;-82
2021/07/26 01:06:14;;;;;;;4.00;2.80;;;;;;;17.01;93.32;98528.13;5103730;28;20048;-82
2021/07/26 01:08:41;;;;;;;5.80;3.10;;;;;;;16.95;92.30;98519.78;5102320;28;20044;-82
2021/07/26 01:11:09;;;;;;;7.18;3.55;;;;;;;16.93;93.25;98529.34;5099453;28;20444;-82
2021/07/26 01:13:36;;;;;;;6.50;4.25;;;;;;;16.95;93.41;98528.03;5106781;28;20058;-83
2021/07/26 01:16:04;;;;;;;6.60;3.20;;;;;;;16.77;93.45;98526.25;5108573;28;20044;-83
2021/07/26 01:18:31;;;;;;;8.10;3.80;;;;;;;16.95;93.52;98535.41;5105665;28;20074;-83
2021/07/26 01:21:00;;;;;;;4.30;3.25;;;;;;;16.75;93.55;98522.06;5105418;28;20044;-82
2021/07/26 01:23:32;;;;;;;4.45;3.28;;;;;;;16.87;93.75;98535.81;5100035;28;20052;-83
2021/07/26 01:25:59;;;;;;;4.55;3.17;;;;;;;16.88;93.08;98529.25;5101197;28;20097;-82
2021/07/26 01:28:28;;;;;;;5.47;3.30;;;;;;;16.86;93.71;98534.94;5108297;28;20385;-82
2021/07/26 01:30:56;;;;;;;4.32;3.58;;;;;;;16.89;93.15;98537.25;5098898;28;20108;-83
2021/07/26 01:33:23;;;;;;;7.05;3.47;;;;;;;16.77;93.15;98531.72;5103535;28;20130;-82
2021/07/26 01:35:51;;;;;;;6.95;3.75;;;;;;;16.72;94.19;98519.78;5098934;28;20047;-83
2021/07/26 01:38:20;;;;;;;4.47;3.42;;;;;;;16.78;93.79;98530.63;5108756;27;20048;-83
2021/07/26 01:40:50;;;;;;;6.30;3.72;;;;;;;16.79;93.04;98537.81;5098914;28;20040;-84
2021/07/26 01:43:18;;;;;;;3.50;3.15;;;;;;;16.70;93.34;98527.44;5102410;28;20097;-83
2021/07/26 01:45:58;;;;;;;6.88;3.45;;;;;;;16.70;93.91;98531.03;5101765;28;20526;-83
2021/07/26 01:48:28;;;;;;;5.50;3.70;;;;;;;16.77;94.07;98541.84;5111307;28;20052;-83
2021/07/26 01:51:02;;;;;;;4.20;2.92;;;;;;;16.74;94.17;98532.22;5111133;28;20510;-84
2021/07/26 01:53:31;;;;;;;6.80;3.08;;;;;;;16.77;94.01;98529.00;5095288;28;20051;-84
2021/07/26 01:55:58;;;;;;;6.47;3.25;;;;;;;16.78;93.51;98527.06;5105421;28;20047;-84
2021/07/26 01:58:28;;;;;;;6.20;3.58;;;;;;;16.70;94.12;98522.78;5099769;28;20048;-84
2021/07/26 02:00:55;;;;;;;4.05;3.38;;;;;;;16.62;94.81;98520.41;5104626;28;20052;-84
2021/07/26 02:03:21;;;;;;;3.88;3.10;;;;;;;16.64;94.09;98513.59;5113995;28;20491;-84
2021/07/26 02:05:48;;;;;;;3.75;2.92;;;;;;;16.74;94.01;98521.25;5109044;28;20090;-83
2021/07/26 02:08:15;;;;;;;7.57;3.28;;;;;;;16.69;94.27;98517.53;5099473;28;20048;-83
2021/07/26 02:10:43;;;;;;;9.88;3.75;;;;;;;16.57;95.11;98526.59;5103247;28;20067;-84
2021/07/26 02:13:10;;;;;;;4.63;3.08;;;;;;;16.55;94.90;98522.44;5099533;28;20105;-84
2021/07/26 02:15:37;;;;;;;7.93;3.72;;;;;;;16.63;94.30;98522.94;5098504;28;20484;-84
2021/07/26 02:18:03;;;;;;;4.03;3.13;;;;;;;16.52;94.87;98525.66;5105257;28;20054;-83
2021/07/26 02:20:30;;;;;;;3.50;3.20;;;;;;;16.60;95.12;98542.59;5103584;28;20063;-84
2021/07/26 02:22:57;;;;;;;8.85;3.78;;;;;;;16.58;95.11;98544.75;5103926;28;20051;-84
2021/07/26 02:25:24;;;;;;;7.32;3.88;;;;;;;16.49;94.30;98524.22;5100330;28;20097;-84
2021/07/26 02:27:52;;;;;;;9.70;3.17;;;;;;;16.55;94.95;98556.19;5108658;28;20309;-83
2021/07/26 02:30:19;;;;;;;6.38;3.53;;;;;;;16.44;94.76;98537.84;5100799;28;20097;-84
2021/07/26 02:32:45;;;;;;;4.82;3.50;;;;;;;16.38;95.34;98541.50;5102859;28;20047;-83
2021/07/26 02:35:13;;;;;;;7.15;3.17;;;;;;;16.37;95.85;98545.34;5107195;28;20487;-83
2021/07/26 02:37:40;;;;;;;9.30;3.45;;;;;;;16.37;96.01;98548.09;5101627;28;20487;-83
2021/07/26 02:40:08;;;;;;;4.22;3.53;;;;;;;16.26;95.85;98531.38;5100694;28;20046;-84
2021/07/26 02:42:35;;;;;;;4.85;3.47;;;;;;;16.31;96.81;98538.06;5108754;27;20054;-83
2021/07/26 02:45:04;;;;;;;5.95;3.50;;;;;;;16.50;95.35;98560.72;5094951;28;20537;-83
2021/07/26 02:47:30;;;;;;;7.85;3.22;;;;;;;16.41;95.34;98558.34;5104641;28;20437;-83
2021/07/26 02:49:57;;;;;;;6.75;3.40;;;;;;;16.32;94.75;98543.31;5109044;28;20487;-83
2021/07/26 02:52:24;;;;;;;5.70;3.08;;;;;;;16.38;94.61;98552.47;5109053;28;20044;-83
2021/07/26 02:54:50;;;;;;;5.60;3.25;;;;;;;16.37;95.71;98562.63;5098205;28;20048;-84
2021/07/26 02:57:17;;;;;;;8.10;3.55;;;;;;;16.46;94.25;98569.44;5099116;28;20055;-84
2021/07/26 02:59:44;;;;;;;7.70;3.17;;;;;;;16.35;94.70;98562.03;5104153;28;20051;-84
2021/07/26 03:02:13;;;;;;;5.97;3.20;;;;;;;16.22;94.93;98556.78;5095074;28;20449;-84
2021/07/26 03:04:39;;;;;;;4.47;2.90;;;;;;;16.11;95.14;98561.19;5100571;27;20096;-84
2021/07/26 03:07:07;;;;;;;3.60;3.08;;;;;;;16.21;95.08;98575.16;5104433;28;20051;-84
2021/07/26 03:09:33;;;;;;;7.05;3.70;;;;;;;16.14;95.21;98555.22;5109758;28;20548;-84
2021/07/26 03:12:00;;;;;;;10.05;3.72;;;;;;;16.10;95.68;98574.03;5107792;28;20097;-84
2021/07/26 03:14:28;;;;;;;9.18;3.35;;;;;;;16.08;95.88;98572.63;5097573;28;20426;-84
2021/07/26 03:16:55;;;;;;;8.80;3.60;;;;;;;16.15;95.81;98578.81;5100866;28;20044;-84
2021/07/26 03:19:23;;;;;;;4.45;3.25;;;;;;;16.09;95.98;98560.56;5097276;28;20124;-84
2021/07/26 03:22:20;;;;;;;5.47;3.33;;;;;;;16.22;95.92;98574.06;5096279;28;20083;-84
2021/07/26 03:24:47;;;;;;;4.07;3.38;;;;;;;16.19;95.89;98588.25;5068626;28;20048;-84
2021/07/26 03:27:14;;;;;;;6.05;3.60;;;;;;;16.19;95.73;98576.44;5103239;28;20044;-84
2021/07/26 03:29:40;;;;;;;4.18;3.30;;;;;;;16.22;95.13;98576.81;5107192;28;20415;-84
2021/07/26 03:32:08;;;;;;;6.70;3.63;;;;;;;16.18;95.79;98574.78;5104309;28;20047;-84
2021/07/26 03:34:36;;;;;;;6.53;3.55;;;;;;;16.36;95.42;98588.38;5110991;28;20089;-84
2021/07/26 03:37:03;;;;;;;5.00;3.58;;;;;;;16.33;95.38;98575.16;5109636;28;20070;-84
2021/07/26 03:39:30;;;;;;;6.07;3.60;;;;;;;16.37;94.86;98578.25;5100093;28;20044;-84
2021/07/26 03:41:58;;;;;;;4.15;3.50;;;;;;;16.45;95.19;98600.69;5102887;28;20109;-84
2021/07/26 03:44:25;;;;;;;6.93;3.10;;;;;;;16.44;95.21;98581.75;5096477;28;20047;-84
2021/07/26 03:46:52;;;;;;;4.68;3.25;;;;;;;16.44;95.11;98599.03;5110576;28;20056;-84
2021/07/26 03:49:19;;;;;;;8.50;3.78;;;;;;;16.39;96.25;98593.41;5096796;28;20140;-84
2021/07/26 03:51:47;;;;;;;6.00;3.53;;;;;;;16.31;95.71;98574.56;5103655;28;20052;-84
2021/07/26 03:54:14;;;;;;;6.15;3.47;;;;;;;16.29;95.97;98582.19;5104544;28;20044;-84
2021/07/26 03:56:40;;;;;;;6.60;3.60;;;;;;;16.35;96.45;98594.97;5102522;28;20040;-83
2021/07/26 03:59:12;;;;;;;4.72;3.50;;;;;;;16.38;96.68;98594.50;5098708;28;20043;-84
2021/07/26 04:01:38;;;;;;;7.30;3.47;;;;;;;16.43;97.00;98608.31;5097617;28;20138;-84
2021/07/26 04:04:05;;;;;;;6.15;3.38;;;;;;;16.40;96.59;98594.25;5108819;28;20054;-84
2021/07/26 04:06:32;;;;;;;7.68;3.80;;;;;;;16.37;96.00;98586.50;5104899;28;20100;-84
2021/07/26 04:09:01;;;;;;;10.00;4.40;;;;;;;16.41;96.03;98595.91;5104915;28;20044;-84
2021/07/26 04:11:31;;;;;;;9.00;3.80;;;;;;;16.53;94.93;98583.06;5092365;28;20511;-84
2021/07/26 04:14:01;;;;;;;6.20;4.20;;;;;;;16.60;94.66;98581.00;5113202;28;20113;-82
2021/07/26 04:16:28;;;;;;;4.35;3.10;;;;;;;16.57;95.03;98592.47;5104732;27;20052;-81
2021/07/26 04:18:56;;;;;;;8.40;3.05;;;;;;;16.61;94.55;98584.59;5106626;28;20393;-81
2021/07/26 04:21:29;;;;;;;7.93;3.88;;;;;;;16.62;94.39;98581.63;5112249;28;20047;-82
2021/07/26 04:23:56;;;;;;;5.53;3.30;;;;;;;16.65;94.38;98574.81;5111475;28;20083;-82
2021/07/26 04:26:24;;;;;;;5.15;3.55;;;;;;;16.61;94.54;98577.19;5106131;28;20039;-80
2021/07/26 04:28:51;;;;;;;5.63;3.65;;;;;;;16.69;94.36;98578.75;5101105;28;20047;-84
2021/07/26 04:31:18;;;;;;;4.07;3.22;;;;;;;16.71;94.12;98570.25;5101374;28;20048;-84
2021/07/26 04:33:45;;;;;;;4.45;3.17;;;;;;;16.83;94.48;98582.09;5098608;28;20043;-84
2021/07/26 04:36:11;;;;;;;5.85;3.55;;;;;;;16.89;93.01;98581.16;5104531;28;20048;-84
2021/07/26 04:38:38;;;;;;;6.38;3.22;;;;;;;16.90;92.62;98573.75;5112278;28;20074;-84
2021/07/26 04:41:05;;;;;;;8.75;4.38;;;;;;;17.02;91.98;98573.75;5107370;28;20043;-84
2021/07/26 04:43:35;;;;;;;6.63;2.78;;;;;;;16.97;92.14;98578.03;5103646;28;20112;-83
2021/07/26 04:46:04;;;;;;;6.00;3.10;;;;;;;16.98;92.89;98581.59;5105172;28;20110;-84
2021/07/26 04:48:31;;;;;;;7.22;3.72;;;;;;;17.00;92.52;98590.47;5110263;28;20039;-85
2021/07/26 04:50:58;;;;;;;4.32;3.22;;;;;;;16.96;92.70;98578.28;5109554;28;20051;-84
2021/07/26 04:53:24;;;;;;;5.75;3.33;;;;;;;16.99;92.77;98575.88;5101801;28;20434;-84
2021/07/26 04:55:51;;;;;;;6.72;3.38;;;;;;;17.09;92.90;98588.19;5109082;28;20044;-84
2021/07/26 04:58:18;;;;;;;4.20;2.95;;;;;;;17.10;91.86;98576.94;5105542;28;20047;-84
2021/07/26 05:00:46;;;;;;;4.78;3.40;;;;;;;17.23;92.65;98588.75;5109358;28;20052;-84
2021/07/26 05:03:13;;;;;;;4.22;3.30;;;;;;;17.15;92.74;98579.78;5112656;28;20581;-84
2021/07/26 05:05:40;;;;;;;4.38;3.17;;;;;;;17.24;92.71;98588.50;5110832;28;20052;-84
2021/07/26 05:08:26;;;;;;;5.65;2.90;;;;;;;17.21;92.19;98597.22;5105288;28;20043;-84
2021/07/26 05:10:55;;;;;;;8.20;3.38;;;;;;;17.44;89.53;98590.81;5101362;28;20054;-84
2021/07/26 05:13:22;;;;;;;4.05;3.03;;;;;;;17.52;89.47;98601.44;5114062;28;20398;-84
2021/07/26 05:15:50;;;;;;;4.18;3.00;;;;;;;17.46;89.69;98585.94;5103743;28;20059;-84
2021/07/26 05:18:17;;;;;;;4.88;3.22;;;;;;;17.54;90.88;98592.09;5103920;28;20051;-84
2021/07/26 05:20:44;;;;;;;4.30;2.65;;;;;;;17.60;90.51;98602.97;5103385;28;20553;-84
2021/07/26 05:23:11;;;;;;;4.53;3.30;;;;;;;17.48;91.12;98582.94;5106339;28;20044;-84
2021/07/26 05:25:42;;;;;;;4.57;3.45;;;;;;;17.52;90.64;98592.34;5107516;28;20105;-84
2021/07/26 05:28:09;;;;;;;3.78;2.92;;;;;;;17.55;89.68;98605.59;5107508;28;20496;-83
2021/07/26 05:33:45;;;;;;;4.93;3.43;;;;;;;17.78;88.20;98618.44;5052131;28;20079;-83
2021/07/26 05:36:14;;;;;;;4.50;2.83;;;;;;;17.78;87.44;98617.59;5053113;28;20053;-83
2021/07/26 05:38:40;;;;;;;4.07;3.10;;;;;;;17.78;87.83;98628.59;5053892;28;20076;-84
2021/07/26 05:41:08;;;;;;;4.63;3.08;;;;;;;17.86;88.72;98630.97;5053312;28;20051;-83
2021/07/26 05:43:35;;;;;;;4.85;3.30;;;;;;;17.85;88.93;98612.78;5053208;28;20481;-84
2021/07/26 05:46:02;;;;;;;4.82;2.78;;;;;;;18.30;87.53;98613.91;5053272;28;20067;-84
2021/07/26 05:48:28;;;;;;;5.32;3.38;;;;;;;18.46;86.57;98615.81;5053110;28;20049;-83
2021/07/26 05:50:55;;;;;;;8.93;3.42;;;;;;;18.72;86.06;98624.50;5053836;28;20455;-84
2021/07/26 05:53:23;;;;;;;6.22;3.00;;;;;;;18.54;86.72;98625.59;5053083;28;20047;-84
2021/07/26 05:55:50;;;;;;;3.17;2.88;;;;;;;18.53;87.30;98615.66;5053264;28;20493;-84
2021/07/26 05:58:17;;;;;;;6.95;3.35;;;;;;;18.68;85.81;98604.06;5054257;28;20249;-84
2021/07/26 06:00:56;;;;;;;4.07;2.75;;;;;;;18.98;83.09;98616.66;5052987;28;20048;-84
2021/07/26 06:03:23;;;;;;;10.18;3.50;;;;;;;19.56;81.09;98609.69;5053400;28;20052;-84
2021/07/26 06:06:10;;;;;;;4.05;2.97;;;;;;;20.25;77.84;98619.31;5053344;28;20520;-84
2021/07/26 06:08:39;;;;;;;4.57;3.38;;;;;;;20.51;75.95;98616.75;5053124;28;20045;-84
2021/07/26 06:11:05;;;;;;;3.88;3.20;;;;;;;20.48;75.81;98598.78;5052364;28;20057;-84
2021/07/26 06:13:32;;;;;;;6.13;3.28;;;;;;;20.48;75.56;98612.59;5053178;28;20040;-84
2021/07/26 06:16:00;;;;;;;4.85;3.08;;;;;;;20.73;74.67;98604.81;5052782;28;20049;-84
2021/07/26 06:18:27;;;;;;;4.45;2.47;;;;;;;21.01;74.17;98592.56;5053095;28;20110;-84
2021/07/26 06:20:56;;;;;;;4.95;2.60;;;;;;;21.42;71.02;98589.16;5051081;28;20049;-82
2021/07/26 06:23:23;;;;;;;3.33;2.80;;;;;;;21.65;71.35;98613.63;5060015;28;20045;-83
2021/07/26 06:25:51;;;;;;;3.92;3.05;;;;;;;21.95;70.70;98612.06;5049557;28;20056;-84
2021/07/26 06:28:18;;;;;;;7.45;3.17;;;;;;;22.25;69.54;98613.19;5058324;28;20041;-83
2021/07/26 06:30:44;;;;;;;3.05;2.75;;;;;;;21.57;68.78;98619.66;5055512;28;20059;-83
2021/07/26 06:33:11;;;;;;;5.22;2.65;;;;;;;21.74;67.62;98617.53;5053036;28;20119;-84
2021/07/26 06:35:38;;;;;;;3.72;2.47;;;;;;;21.66;66.29;98609.75;5056951;28;20597;-84
2021/07/26 06:38:05;;;;;;;4.45;2.95;;;;;;;21.76;67.54;98610.91;5051995;28;20045;-84
2021/07/26 06:40:33;;;;;;;6.05;2.95;;;;;;;21.76;67.72;98608.97;5052502;28;20118;-83
2021/07/26 06:43:01;;;;;;;5.28;2.88;;;;;;;22.04;66.97;98621.50;5051831;28;20057;-83
2021/07/26 06:45:28;;;;;;;8.38;3.10;;;;;;;22.26;66.56;98612.09;5047520;28;20234;-83
2021/07/26 06:47:55;;;;;;;5.35;2.80;;;;;;;21.91;67.13;98625.59;5053652;28;20044;-83
2021/07/26 06:50:22;;;;;;;3.95;2.47;;;;;;;21.94;67.57;98624.22;5051811;28;20091;-83
2021/07/26 06:52:54;;;;;;;7.82;3.30;;;;;;;22.32;66.43;98633.19;5051841;28;20041;-83
2021/07/26 06:55:21;;;;;;;12.02;2.95;;;;;;;22.43;67.42;98632.09;5051810;28;20445;-83
2021/07/26 06:57:48;;;;;;;14.15;3.08;;;;;;;22.82;65.63;98630.69;5051586;28;20045;-84
2021/07/26 07:00:17;;;;;;;5.05;3.03;;;;;;;23.13;64.52;98631.50;5052107;28;20262;-84
2021/07/26 07:02:44;;;;;;;13.20;3.05;;;;;;;23.33;64.13;98638.97;5052047;28;20098;-83
2021/07/26 07:05:11;;;;;;;4.90;2.83;;;;;;;23.06;65.36;98633.72;5051797;28;20091;-83
2021/07/26 07:07:37;;;;;;;9.32;3.03;;;;;;;22.89;64.41;98642.34;5051551;28;20101;-84
2021/07/26 07:10:05;;;;;;;4.38;3.20;;;;;;;22.35;66.26;98632.63;5051505;28;20485;-84
2021/07/26 07:12:32;;;;;;;5.13;3.53;;;;;;;22.59;66.12;98638.47;5051421;28;20049;-84
2021/07/26 07:15:05;;;;;;;7.65;3.08;;;;;;;22.73;67.25;98640.69;5052599;28;20455;-83
2021/07/26 07:17:35;;;;;;;12.57;3.33;;;;;;;23.17;65.20;98639.25;5050802;28;20041;-84
2021/07/26 07:20:01;;;;;;;;;;;;;;;23.43;64.06;98643.63;5051051;28;20445;-84
2021/07/26 07:22:28;;;;;;;4.78;2.78;;;;;;;23.81;62.72;98643.22;5051970;28;19924;-84
2021/07/26 07:24:55;;;;;;;7.88;3.03;;;;;;;24.03;63.12;98657.56;5051178;28;20497;-84
2021/07/26 07:27:22;;;;;;;5.20;3.30;;;;;;;24.06;63.00;98647.00;5051418;28;20084;-84
2021/07/26 07:29:48;;;;;;;5.97;3.20;;;;;;;24.19;62.71;98655.53;5051309;28;20045;-84
2021/07/26 07:32:15;;;;;;;9.27;2.70;;;;;;;23.97;64.45;98657.88;5051837;28;20102;-84
2021/07/26 07:34:43;;;;;;;4.93;2.67;;;;;;;24.04;63.80;98655.59;5051147;28;20107;-84
2021/07/26 07:37:10;;;;;;;8.73;3.00;;;;;;;24.16;62.94;98646.94;5051788;28;20041;-84
2021/07/26 07:39:37;;;;;;;7.57;2.65;;;;;;;24.45;61.78;98648.97;5051282;28;20138;-83
2021/07/26 07:42:05;;;;;;;7.88;3.20;;;;;;;24.65;60.46;98661.94;5051544;28;20041;-84
2021/07/26 07:44:33;;;;;;;5.18;3.40;;;;;;;24.66;59.75;98658.84;5050428;28;20554;-84
2021/07/26 07:47:00;;;;;;;5.50;2.83;;;;;;;24.87;61.35;98642.84;5051668;28;20072;-84
2021/07/26 07:49:27;;;;;;;5.97;2.67;;;;;;;24.91;58.55;98652.22;5050661;28;20086;-84
2021/07/26 07:51:57;;;;;;;5.90;2.63;;;;;;;24.82;60.03;98658.72;5051433;28;20142;-84
2021/07/26 07:54:24;;;;;;;7.97;2.67;;;;;;;24.54;59.45;98642.50;5050016;28;20094;-84
2021/07/26 07:56:51;;;;;;;8.52;3.20;;;;;;;24.70;59.24;98665.47;5051474;28;20098;-84
2021/07/26 07:59:18;;;;;;;3.10;2.22;;;;;;;25.04;59.90;98650.72;5051586;28;20088;-84
2021/07/26 08:01:45;;;;;;;5.35;2.85;;;;;;;24.98;56.43;98651.09;5051449;28;20045;-83
2021/07/26 08:04:15;;;;;;;3.45;2.30;;;;;;;24.81;54.82;98662.59;5050460;28;20045;-84
2021/07/26 08:06:43;;;;;;;8.30;2.38;;;;;;;25.06;55.53;98654.03;5051038;28;20041;-83
2021/07/26 08:09:11;;;;;;;3.50;2.58;;;;;;;25.40;53.72;98660.69;5051614;28;20083;-83
2021/07/26 08:11:38;;;;;;;3.60;2.28;;;;;;;25.64;56.30;98663.47;5050817;28;20501;-83
2021/07/26 08:14:05;;;;;;;4.95;2.35;;;;;;;25.37;56.83;98661.28;5051058;28;20533;-83
2021/07/26 08:16:32;;;;;;;5.97;2.42;;;;;;;25.35;58.32;98656.03;5051050;28;20444;-83
2021/07/26 08:18:59;;;;;;;8.40;2.35;;;;;;;25.31;54.98;98648.53;5051470;28;20076;-83
2021/07/26 08:21:28;;;;;;;6.28;2.58;;;;;;;24.79;54.82;98664.88;5050884;28;20094;-83
2021/07/26 08:23:55;;;;;;;6.63;2.50;;;;;;;25.13;58.16;98663.97;5049934;28;20137;-83
2021/07/26 08:26:23;;;;;;;5.53;2.03;;;;;;;24.79;53.89;98668.47;5050892;28;20076;-83
2021/07/26 08:28:50;;;;;;;3.33;2.03;;;;;;;25.17;53.28;98659.50;5050737;28;20057;-83
2021/07/26 08:31:17;;;;;;;4.30;2.15;;;;;;;25.06;54.05;98667.94;5051702;28;20048;-83
2021/07/26 08:33:43;;;;;;;3.42;2.28;;;;;;;24.97;53.48;98674.44;5050333;28;20041;-83
2021/07/26 08:36:11;;;;;;;4.10;2.53;;;;;;;24.94;55.57;98661.13;5051186;28;20548;-83
2021/07/26 08:38:37;;;;;;;3.75;2.15;;;;;;;24.98;55.56;98664.97;5050679;28;20041;-83
2021/07/26 08:41:04;;;;;;;3.42;2.03;;;;;;;25.22;56.85;98668.63;5051557;28;20041;-83
2021/07/26 08:43:33;;;;;;;4.28;2.35;;;;;;;25.60;55.37;98654.06;5050722;28;20400;-83
2021/07/26 08:46:03;;;;;;;4.50;2.33;;;;;;;25.67;55.35;98662.88;5051052;28;20366;-83
2021/07/26 08:48:32;;;;;;;4.20;2.53;;;;;;;25.73;55.76;98649.72;5050897;28;20053;-83
2021/07/26 08:51:03;;;;;;;4.32;2.53;;;;;;;26.24;57.05;98662.16;5052335;28;20548;-84
2021/07/26 08:53:34;;;;;;;3.83;2.70;;;;;;;26.11;55.00;98669.31;5052177;28;21682;-84
2021/07/26 08:56:01;;;;;;;3.83;2.55;;;;;;;25.72;52.25;98651.69;5052093;28;20057;-84
2021/07/26 08:58:27;;;;;;;4.65;2.55;;;;;;;25.47;55.19;98657.56;5049969;28;20044;-84
2021/07/26 09:01:03;;;;;;;3.70;2.60;;;;;;;25.66;57.00;98658.44;5052289;28;20094;-84
2021/07/26 09:03:32;;;;;;;3.58;2.30;;;;;;;25.78;55.37;98656.06;5054588;28;20045;-83
2021/07/26 09:05:59;;;;;;;5.03;2.38;;;;;;;25.66;52.44;98657.63;5054038;28;20049;-83
2021/07/26 09:11:13;;;;;;;5.78;2.40;;;;;;;25.68;52.12;98652.56;5023005;28;20054;-84
2021/07/26 09:13:44;;;;;;;4.20;2.53;;;;;;;25.56;51.44;98639.06;5054153;28;20071;-84
2021/07/26 09:16:25;;;;;;;3.03;2.38;;;;;;;25.43;51.95;98658.13;5043583;28;20053;-83
2021/07/26 09:19:02;;;;;;;3.60;2.45;;;;;;;25.67;50.98;98665.66;5053283;28;20099;-83
2021/07/26 09:21:51;;;;;;;4.68;2.38;;;;;;;25.59;50.34;98655.19;5053571;28;20045;-84
2021/07/26 09:24:34;;;;;;;4.10;2.58;;;;;;;26.00;52.76;98645.50;5051668;28;20056;-83
2021/07/26 09:27:11;;;;;;;3.90;2.35;;;;;;;26.14;50.31;98643.66;5035893;28;20052;-83
2021/07/26 09:29:38;;;;;;;3.13;2.35;;;;;;;25.82;49.55;98649.88;5053253;28;20106;-84
2021/07/26 09:32:07;;;;;;;2.75;2.05;;;;;;;26.47;51.34;98650.09;5049010;28;20158;-83
2021/07/26 09:34:38;;;;;;;4.88;2.40;;;;;;;26.54;51.12;98649.72;5053061;28;20695;-84
2021/07/26 09:37:17;;;;;;;4.18;2.55;;;;;;;25.97;50.68;98647.75;5053995;28;20052;-83
2021/07/26 09:39:49;;;;;;;5.75;2.75;;;;;;;25.89;51.15;98644.78;5052601;28;20090;-84
2021/07/26 09:42:26;;;;;;;2.92;2.05;;;;;;;26.24;48.15;98656.59;5054390;28;20056;-84
2021/07/26 09:44:55;;;;;;;3.25;2.45;;;;;;;26.47;47.51;98652.91;5053016;28;20106;-83
2021/07/26 09:47:23;;;;;;;4.43;2.25;;;;;;;26.94;49.73;98654.97;5053062;28;20102;-84
2021/07/26 09:49:50;;;;;;;3.50;2.17;;;;;;;26.94;50.09;98643.81;5053297;28;20048;-84
2021/07/26 09:52:21;;;;;;;4.88;2.20;;;;;;;26.49;49.08;98639.47;5050870;28;20057;-83
2021/07/26 09:54:50;;;;;;;8.50;2.85;;;;;;;26.01;47.11;98641.59;5053727;28;20044;-83
2021/07/26 09:57:19;;;;;;;4.13;2.25;;;;;;;26.33;46.16;98643.63;5047977;28;20087;-84
2021/07/26 09:59:47;;;;;;;5.47;2.28;;;;;;;26.25;44.97;98630.38;5052671;28;20246;-84
2021/07/26 10:02:15;;;;;;;4.50;2.55;;;;;;;26.50;45.46;98618.84;5050056;28;20049;-84
2021/07/26 10:04:43;;;;;;;4.05;2.30;;;;;;;26.60;48.41;98617.00;5047319;28;20558;-84
2021/07/26 10:07:13;;;;;;;3.67;2.30;;;;;;;26.65;46.27;98617.75;5053240;28;20049;-84
2021/07/26 10:09:41;;;;;;;4.45;2.50;;;;;;;26.53;45.39;98617.41;5052687;28;20374;-84
2021/07/26 10:12:10;;;;;;;6.40;2.40;;;;;;;27.16;47.86;98613.25;5052359;28;20412;-84
2021/07/26 10:14:38;;;;;;;6.13;2.45;;;;;;;27.48;47.47;98622.72;5049661;28;20041;-84
2021/07/26 10:17:05;;;;;;;3.50;2.30;;;;;;;26.90;46.19;98610.09;5047705;28;20042;-84
2021/07/26 10:19:34;;;;;;;4.25;2.55;;;;;;;26.81;45.80;98618.38;5053677;28;20052;-84
2021/07/26 10:22:04;;;;;;;3.28;2.22;;;;;;;27.20;45.95;98613.47;5054903;28;20053;-84
2021/07/26 10:24:37;;;;;;;5.78;2.35;;;;;;;27.49;48.18;98613.22;5052630;28;20049;-84
2021/07/26 10:27:10;;;;;;;3.33;1.92;;;;;;;27.55;46.24;98613.91;5050783;28;20053;-83
2021/07/26 10:29:51;;;;;;;4.78;2.17;;;;;;;27.67;47.23;98608.66;5049032;28;20057;-84
2021/07/26 10:32:35;;;;;;;4.13;2.50;;;;;;;27.74;44.21;98616.59;5048815;28;20568;-84
2021/07/26 10:35:04;;;;;;;5.82;2.13;;;;;;;27.25;42.29;98606.97;5045642;28;20045;-84
2021/07/26 10:37:50;;;;;;;5.18;2.38;;;;;;;27.93;43.51;98610.03;5052231;28;20041;-84
2021/07/26 10:40:19;;;;;;;2.83;1.88;;;;;;;28.26;45.14;98613.53;5050066;28;20401;-84
2021/07/26 10:42:46;;;;;;;5.22;2.60;;;;;;;27.99;45.65;98606.88;5053691;28;20049;-84
2021/07/26 10:46:01;;;;;;;4.47;2.53;;;;;;;27.89;44.43;98609.84;5048229;28;20378;-84
2021/07/26 10:48:35;;;;;;;3.28;2.63;;;;;;;27.30;44.08;98616.06;5050606;28;20056;-83
2021/07/26 10:51:02;;;;;;;6.28;2.40;;;;;;;27.07;45.66;98605.91;5049779;28;20053;-84
2021/07/26 10:53:59;;;;;;;5.30;2.50;;;;;;;27.10;46.17;98605.28;5054754;28;20037;-84
2021/07/26 10:56:26;;;;;;;6.20;2.40;;;;;;;26.97;45.79;98602.19;5047278;28;20052;-84
2021/07/26 10:59:05;;;;;;;7.00;1.95;;;;;;;27.56;42.92;98590.47;5049258;28;20056;-84
2021/07/26 11:01:40;;;;;;;;;;;;;;;27.99;42.98;98592.09;5046407;28;20128;-84
2021/07/26 11:04:45;;;;;;;2.85;1.95;;;;;;;28.43;44.70;98585.69;5049794;28;19974;-84
2021/07/26 11:07:31;;;;;;;8.25;2.22;;;;;;;28.21;44.09;98592.13;5052253;28;20056;-84
2021/07/26 11:09:59;;;;;;;5.82;2.33;;;;;;;28.33;48.80;98591.53;5051146;28;20048;-84
2021/07/26 11:12:55;;;;;;;3.17;2.08;;;;;;;28.76;44.25;98570.66;5050885;28;20076;-84
2021/07/26 11:15:23;;;;;;;3.17;2.22;;;;;;;29.04;41.89;98568.50;5052976;28;20053;-84
2021/07/26 11:18:35;;;;;;;4.15;2.10;;;;;;;29.16;43.73;98561.47;5053827;28;20554;-84
2021/07/26 11:21:09;;;;;;;3.88;2.20;;;;;;;29.28;43.05;98554.16;5041500;28;20061;-84
2021/07/26 11:23:52;;;;;;;4.15;2.17;;;;;;;28.66;38.64;98574.53;5045295;28;20528;-84
2021/07/26 11:26:29;;;;;;;3.38;2.10;;;;;;;28.20;43.98;98568.09;5046773;28;20435;-84
2021/07/26 11:28:58;;;;;;;5.90;2.10;;;;;;;28.29;45.13;98570.13;5045330;28;20048;-84
2021/07/26 11:31:30;;;;;;;3.42;2.30;;;;;;;27.75;41.38;98551.25;5051550;28;20136;-84
2021/07/26 11:34:21;;;;;;;4.30;2.28;;;;;;;28.18;41.46;98562.03;5052517;28;20049;-84
2021/07/26 11:37:07;;;;;;;3.45;2.00;;;;;;;27.57;41.77;98557.81;5047411;28;20048;-84
2021/07/26 11:39:48;;;;;;;3.00;2.25;;;;;;;27.60;43.33;98563.56;5050863;28;20052;-84
2021/07/26 11:42:18;;;;;;;5.05;1.90;;;;;;;27.24;43.15;98594.16;5048147;28;20060;-84
2021/07/26 11:44:50;;;;;;;5.15;2.00;;;;;;;25.78;49.83;98572.53;5051249;28;20045;-81
2021/07/26 11:47:18;;;;;;;3.00;1.83;;;;;;;24.97;53.77;98583.50;5050911;28;20045;-81
2021/07/26 11:49:49;;;;;;;4.05;1.90;;;;;;;24.17;56.55;98595.84;5050737;28;20057;-81
2021/07/26 11:52:17;;;;;;;2.40;1.88;;;;;;;24.33;55.33;98597.41;5050317;28;20060;-82